Time;durP1;ratioP1;P1;durP2;ratioP2;P2;SDS_P1;SDS_P2;PMS_P1;PMS_P2;Temp;Humidity;BMP_temperature;BMP_pressure;BME280_temperature;BME280_humidity;BME280_pressure;Samples;Min_cycle;Max_cycle;Signal;HPM_P1;HPM_P2
2023/06/25 00:00:34;;;;;;;6.97;3.58;;;18.60;99.90;;;;;;5091990;28;20503;-54
2023/06/25 00:02:59;;;;;;;7.70;3.03;;;18.60;99.90;;;;;;5092230;28;20468;-54
2023/06/25 00:05:25;;;;;;;7.55;3.72;;;18.60;99.90;;;;;;5092003;28;20039;-53
2023/06/25 00:07:50;;;;;;;5.28;3.20;;;18.60;99.90;;;;;;5091848;28;20031;-55
2023/06/25 00:10:17;;;;;;;7.18;3.38;;;18.60;99.90;;;;;;5091915;28;20028;-53
2023/06/25 00:12:43;;;;;;;7.90;3.85;;;18.60;99.90;;;;;;5091809;28;20074;-54
2023/06/25 00:15:10;;;;;;;5.82;2.90;;;18.60;99.90;;;;;;5091878;28;20488;-55
2023/06/25 00:17:36;;;;;;;7.13;3.65;;;18.60;99.90;;;;;;5091863;28;20049;-53
2023/06/25 00:20:02;;;;;;;8.45;4.13;;;18.50;99.90;;;;;;5091307;28;20058;-53
2023/06/25 00:22:28;;;;;;;15.68;8.05;;;18.60;99.90;;;;;;5091718;28;20403;-55
2023/06/25 00:24:54;;;;;;;12.65;7.30;;;18.50;99.90;;;;;;5073352;28;20067;-53
2023/06/25 00:27:19;;;;;;;26.50;15.02;;;18.50;99.90;;;;;;5091503;28;20140;-55
2023/06/25 00:29:45;;;;;;;21.75;12.75;;;18.50;99.90;;;;;;5073295;28;20028;-53
2023/06/25 00:32:17;;;;;;;26.38;13.68;;;18.50;99.90;;;;;;5073112;28;20069;-54
2023/06/25 00:34:43;;;;;;;13.82;8.43;;;18.50;99.90;;;;;;5073371;28;20545;-55
2023/06/25 00:37:16;;;;;;;13.30;7.32;;;18.50;99.90;;;;;;5091458;28;20035;-52
2023/06/25 00:39:48;;;;;;;11.10;5.30;;;18.50;99.90;;;;;;5073051;28;20081;-54
2023/06/25 00:42:15;;;;;;;12.52;6.30;;;18.50;99.90;;;;;;5072579;28;20031;-54
2023/06/25 00:44:41;;;;;;;13.13;6.88;;;18.50;99.90;;;;;;5072635;28;20039;-53
2023/06/25 00:47:15;;;;;;;9.95;5.65;;;18.50;99.90;;;;;;5091196;28;20027;-54
2023/06/25 00:49:45;;;;;;;7.47;4.47;;;18.60;99.90;;;;;;5073132;28;20106;-54
2023/06/25 00:52:12;;;;;;;8.63;4.90;;;18.50;99.90;;;;;;5072747;28;20035;-54
2023/06/25 00:54:40;;;;;;;7.78;4.53;;;18.50;99.90;;;;;;5091007;28;20031;-55
2023/06/25 00:57:07;;;;;;;7.60;4.05;;;18.50;99.90;;;;;;5091031;28;20534;-53
2023/06/25 00:59:40;;;;;;;7.57;3.78;;;18.50;99.90;;;;;;5091100;28;20023;-53
2023/06/25 01:02:09;;;;;;;6.78;4.00;;;18.50;99.90;;;;;;5090804;28;20028;-52
2023/06/25 01:04:43;;;;;;;6.88;3.95;;;18.50;99.90;;;;;;5090900;28;20032;-53
2023/06/25 01:07:16;;;;;;;7.45;3.50;;;18.50;99.90;;;;;;5090889;28;20028;-52
2023/06/25 01:09:46;;;;;;;6.72;3.55;;;18.50;99.90;;;;;;5072675;28;20035;-52
2023/06/25 01:12:12;;;;;;;6.47;3.30;;;18.50;99.90;;;;;;5072229;28;20031;-54
2023/06/25 01:14:40;;;;;;;6.35;3.70;;;18.50;99.90;;;;;;5090816;28;20030;-52
2023/06/25 01:17:07;;;;;;;7.10;3.05;;;18.50;99.90;;;;;;5090863;28;20437;-50
2023/06/25 01:19:33;;;;;;;6.05;3.47;;;18.50;99.90;;;;;;5072513;28;20032;-53
2023/06/25 01:22:00;;;;;;;6.43;3.28;;;18.50;99.90;;;;;;5072303;28;20107;-53
2023/06/25 01:24:27;;;;;;;6.13;3.58;;;18.50;99.90;;;;;;5090840;28;20051;-51
2023/06/25 01:26:56;;;;;;;6.20;3.38;;;18.50;99.90;;;;;;5072626;28;20036;-54
2023/06/25 01:29:22;;;;;;;7.30;3.60;;;18.40;99.90;;;;;;5072437;28;20032;-52
2023/06/25 01:31:51;;;;;;;6.07;3.28;;;18.40;99.90;;;;;;5090444;28;20028;-54
2023/06/25 01:34:19;;;;;;;;;;;18.40;99.90;;;;;;5072949;28;20040;-54
2023/06/25 01:36:49;;;;;;;6.22;3.38;;;18.40;99.90;;;;;;5090602;28;19969;-54
2023/06/25 01:39:16;;;;;;;6.68;3.45;;;18.40;99.90;;;;;;5090503;28;20499;-53
2023/06/25 01:41:46;;;;;;;6.93;3.47;;;18.30;99.90;;;;;;5072102;28;20094;-54
2023/06/25 01:44:15;;;;;;;7.68;3.67;;;18.30;99.90;;;;;;5090628;28;20028;-53
2023/06/25 01:46:41;;;;;;;8.00;3.72;;;18.30;99.90;;;;;;5090445;28;20024;-54
2023/06/25 01:49:07;;;;;;;5.50;3.30;;;18.20;99.90;;;;;;5072117;28;20035;-55
2023/06/25 01:51:33;;;;;;;7.53;3.35;;;18.20;99.90;;;;;;5090452;28;20028;-54
2023/06/25 01:53:59;;;;;;;5.80;3.38;;;18.20;99.90;;;;;;5072696;28;20385;-53
2023/06/25 01:56:25;;;;;;;6.15;3.53;;;18.10;99.90;;;;;;5094467;28;20032;-55
2023/06/25 01:58:53;;;;;;;6.85;3.53;;;18.10;99.90;;;;;;5076773;28;20030;-55
2023/06/25 02:01:22;;;;;;;7.13;3.60;;;18.10;99.90;;;;;;5075929;28;20388;-54
2023/06/25 02:03:48;;;;;;;6.40;3.53;;;18.00;99.90;;;;;;5076512;28;20059;-54
2023/06/25 02:06:14;;;;;;;5.57;3.40;;;18.00;99.90;;;;;;5059306;28;20036;-53
2023/06/25 02:08:40;;;;;;;7.03;3.67;;;18.00;99.90;;;;;;5075903;28;20028;-55
2023/06/25 02:11:07;;;;;;;6.38;3.60;;;18.00;99.90;;;;;;5094335;28;20028;-53
2023/06/25 02:13:37;;;;;;;6.57;3.60;;;17.90;99.90;;;;;;5075955;28;20028;-55
2023/06/25 02:16:03;;;;;;;6.00;3.60;;;17.80;99.90;;;;;;5075919;28;20403;-55
2023/06/25 02:18:28;;;;;;;8.98;4.15;;;17.70;99.90;;;;;;5075848;28;20028;-55
2023/06/25 02:20:54;;;;;;;7.53;3.33;;;17.70;99.90;;;;;;5094225;28;20024;-52
2023/06/25 02:23:21;;;;;;;6.75;3.42;;;17.60;99.90;;;;;;5076094;28;20043;-54
2023/06/25 02:25:46;;;;;;;7.85;3.80;;;17.50;99.90;;;;;;5093898;28;20028;-54
2023/06/25 02:28:12;;;;;;;6.82;3.22;;;17.50;99.90;;;;;;5093815;28;20055;-53
2023/06/25 02:30:38;;;;;;;4.78;3.03;;;17.50;99.90;;;;;;5093768;28;20064;-51
2023/06/25 02:33:04;;;;;;;5.30;3.10;;;17.40;99.90;;;;;;5094166;28;20380;-54
2023/06/25 02:35:30;;;;;;;6.10;2.83;;;17.30;99.90;;;;;;5075941;28;20055;-54
2023/06/25 02:37:55;;;;;;;5.75;3.30;;;17.30;99.90;;;;;;5075838;28;20031;-54
2023/06/25 02:40:21;;;;;;;6.53;3.58;;;17.30;99.90;;;;;;5075450;28;20035;-54
2023/06/25 02:42:47;;;;;;;5.53;3.15;;;17.20;99.90;;;;;;5075504;28;20031;-53
2023/06/25 02:45:13;;;;;;;7.07;3.05;;;17.20;99.90;;;;;;5093603;28;20028;-54
2023/06/25 02:47:39;;;;;;;6.03;3.00;;;17.10;99.90;;;;;;5093639;28;20020;-53
2023/06/25 02:50:05;;;;;;;6.40;3.30;;;17.10;99.90;;;;;;5075193;28;20350;-55
2023/06/25 02:52:33;;;;;;;7.38;3.25;;;16.90;99.90;;;;;;5075292;28;20024;-53
2023/06/25 02:54:59;;;;;;;5.80;3.25;;;16.90;99.90;;;;;;5093260;28;20032;-52
2023/06/25 02:57:29;;;;;;;5.50;3.40;;;16.80;99.90;;;;;;5093389;28;20033;-52
2023/06/25 02:59:55;;;;;;;5.07;3.10;;;16.80;99.90;;;;;;5075096;28;20570;-54
2023/06/25 03:02:21;;;;;;;6.20;3.00;;;16.80;99.90;;;;;;5074860;28;20028;-53
2023/06/25 03:04:46;;;;;;;5.63;3.00;;;16.80;99.90;;;;;;5074977;28;20042;-53
2023/06/25 03:07:12;;;;;;;7.57;2.85;;;16.70;99.90;;;;;;5092509;28;20035;-53
2023/06/25 03:09:38;;;;;;;5.55;2.88;;;16.70;99.90;;;;;;5074997;28;20028;-53
2023/06/25 03:12:04;;;;;;;5.60;3.20;;;16.70;99.90;;;;;;5092787;28;20035;-52
2023/06/25 03:14:30;;;;;;;5.45;3.15;;;16.60;99.90;;;;;;5074876;28;20506;-52
2023/06/25 03:16:56;;;;;;;7.07;3.35;;;16.60;99.90;;;;;;5075021;28;20024;-54
2023/06/25 03:19:22;;;;;;;6.90;3.17;;;16.60;99.90;;;;;;5074656;28;20036;-53
2023/06/25 03:21:48;;;;;;;7.00;3.35;;;16.60;99.90;;;;;;5092784;28;20146;-52
2023/06/25 03:24:14;;;;;;;7.72;3.53;;;16.60;99.90;;;;;;5074588;28;20028;-53
2023/06/25 03:26:41;;;;;;;5.90;3.13;;;16.60;99.90;;;;;;5074623;28;20032;-54
2023/06/25 03:29:07;;;;;;;6.97;3.28;;;16.50;99.90;;;;;;5092448;28;20115;-54
2023/06/25 03:31:32;;;;;;;6.60;3.20;;;16.50;99.90;;;;;;5074501;28;20059;-53
2023/06/25 03:34:01;;;;;;;6.78;3.30;;;16.50;99.90;;;;;;5074479;28;20485;-53
2023/06/25 03:36:27;;;;;;;5.35;2.90;;;16.50;99.90;;;;;;5074692;28;20357;-55
2023/06/25 03:38:52;;;;;;;7.05;3.20;;;16.50;99.90;;;;;;5074155;28;20039;-53
2023/06/25 03:41:18;;;;;;;5.32;3.28;;;16.50;99.90;;;;;;5074197;28;20047;-55
2023/06/25 03:43:44;;;;;;;7.30;3.47;;;16.50;99.90;;;;;;5074356;28;20032;-52
2023/06/25 03:46:11;;;;;;;6.50;3.30;;;16.40;99.90;;;;;;5074114;28;20067;-50
2023/06/25 03:48:40;;;;;;;6.95;3.35;;;16.50;99.90;;;;;;5074459;28;20034;-53
2023/06/25 03:51:06;;;;;;;6.22;3.05;;;16.50;99.90;;;;;;5074550;28;20226;-49
2023/06/25 03:53:32;;;;;;;6.70;3.15;;;16.50;99.90;;;;;;5074433;28;20027;-53
2023/06/25 03:55:58;;;;;;;6.80;3.35;;;16.50;99.90;;;;;;5074433;28;20036;-49
2023/06/25 03:58:23;;;;;;;7.35;2.92;;;16.50;99.90;;;;;;5074701;28;20032;-53
2023/06/25 04:00:49;;;;;;;6.57;3.50;;;16.50;99.90;;;;;;5075800;28;20035;-53
2023/06/25 04:03:15;;;;;;;6.45;3.25;;;16.50;99.90;;;;;;5094206;28;20032;-53
2023/06/25 04:05:41;;;;;;;6.05;3.10;;;16.60;99.90;;;;;;5094193;28;20028;-51
2023/06/25 04:08:06;;;;;;;5.07;3.10;;;16.60;99.90;;;;;;5074470;28;20035;-54
2023/06/25 04:10:32;;;;;;;5.50;3.60;;;16.60;99.90;;;;;;5073448;28;20031;-53
2023/06/25 04:12:58;;;;;;;5.60;2.95;;;16.50;99.90;;;;;;5073861;28;20154;-53
2023/06/25 04:15:23;;;;;;;5.47;3.40;;;16.60;99.90;;;;;;5073512;28;20020;-50
2023/06/25 04:17:49;;;;;;;5.55;3.13;;;16.60;99.90;;;;;;5072647;28;20028;-55
2023/06/25 04:20:15;;;;;;;7.32;3.78;;;16.70;99.90;;;;;;5073312;28;20058;-54
2023/06/25 04:22:40;;;;;;;8.13;3.60;;;16.70;99.90;;;;;;5073335;28;20107;-53
2023/06/25 04:25:07;;;;;;;7.80;3.63;;;16.70;99.90;;;;;;5073262;28;20034;-53
2023/06/25 04:27:32;;;;;;;5.65;3.22;;;16.80;99.90;;;;;;5073440;28;20035;-55
2023/06/25 04:29:58;;;;;;;6.97;3.05;;;16.90;99.90;;;;;;5091491;28;20028;-52
2023/06/25 04:32:25;;;;;;;6.57;3.63;;;16.90;99.90;;;;;;5073185;28;20023;-51
2023/06/25 04:34:51;;;;;;;7.18;3.47;;;16.90;99.90;;;;;;5091433;28;20032;-55
2023/06/25 04:37:17;;;;;;;6.35;3.58;;;17.00;99.90;;;;;;5091390;28;20081;-55
2023/06/25 04:39:43;;;;;;;7.10;4.00;;;17.10;99.90;;;;;;5091940;28;20410;-53
2023/06/25 04:42:09;;;;;;;5.47;3.40;;;17.10;99.90;;;;;;5072982;28;20496;-54
2023/06/25 04:44:35;;;;;;;5.32;3.55;;;17.20;99.90;;;;;;5072964;28;20127;-52
2023/06/25 04:47:00;;;;;;;8.02;3.75;;;17.30;99.90;;;;;;5073105;28;20142;-54
2023/06/25 04:49:26;;;;;;;5.70;3.47;;;17.30;99.90;;;;;;5073064;28;20121;-54
2023/06/25 04:51:52;;;;;;;5.65;3.50;;;17.40;99.90;;;;;;5090977;28;20027;-54
2023/06/25 04:54:17;;;;;;;7.38;3.53;;;17.50;99.90;;;;;;5091074;28;20028;-54
2023/06/25 04:56:43;;;;;;;8.00;3.78;;;17.60;99.90;;;;;;5073067;28;20032;-54
2023/06/25 04:59:08;;;;;;;7.50;3.33;;;17.70;99.90;;;;;;5090977;28;20055;-55
2023/06/25 05:01:34;;;;;;;6.70;3.70;;;17.80;99.90;;;;;;5090857;28;20024;-54
2023/06/25 05:04:00;;;;;;;6.88;3.67;;;17.80;99.90;;;;;;5091021;28;20024;-53
2023/06/25 05:06:25;;;;;;;6.75;3.75;;;17.90;99.90;;;;;;5090790;28;20089;-52
2023/06/25 05:08:51;;;;;;;7.18;3.75;;;18.00;99.90;;;;;;5090746;28;20035;-54
2023/06/25 05:11:16;;;;;;;8.05;3.53;;;18.10;99.90;;;;;;5090717;28;20035;-55
2023/06/25 05:13:42;;;;;;;6.03;3.85;;;18.20;99.90;;;;;;5072725;28;20046;-52
2023/06/25 05:16:08;;;;;;;7.53;4.00;;;18.30;99.90;;;;;;5090851;28;20374;-55
2023/06/25 05:18:33;;;;;;;8.02;4.53;;;18.60;99.90;;;;;;5090757;28;20786;-55
2023/06/25 05:20:59;;;;;;;6.47;3.72;;;18.70;99.90;;;;;;5090551;28;20468;-55
2023/06/25 05:23:25;;;;;;;6.97;4.20;;;18.90;99.90;;;;;;5090641;28;20032;-55
2023/06/25 05:25:51;;;;;;;7.05;4.05;;;19.20;99.90;;;;;;5090754;28;20059;-54
2023/06/25 05:28:17;;;;;;;5.75;3.85;;;19.20;99.90;;;;;;5090643;28;20504;-54
2023/06/25 05:30:42;;;;;;;7.53;4.25;;;19.30;99.90;;;;;;5096740;28;20028;-53
2023/06/25 05:33:08;;;;;;;7.18;4.10;;;19.30;99.90;;;;;;5079358;28;20024;-55
2023/06/25 05:35:34;;;;;;;7.22;4.53;;;19.40;99.90;;;;;;5097508;28;20032;-55
2023/06/25 05:38:00;;;;;;;5.82;4.22;;;19.50;99.90;;;;;;5097346;28;20028;-53
2023/06/25 05:40:26;;;;;;;7.30;4.00;;;19.70;99.90;;;;;;5079168;28;20028;-53
2023/06/25 05:42:54;;;;;;;6.78;3.90;;;19.80;99.90;;;;;;5097515;28;20121;-55
2023/06/25 05:45:20;;;;;;;6.63;4.07;;;20.00;99.90;;;;;;5097937;28;20210;-53
2023/06/25 05:47:45;;;;;;;8.77;4.72;;;20.00;99.90;;;;;;5097919;28;20370;-53
2023/06/25 05:50:11;;;;;;;6.47;4.00;;;20.20;99.90;;;;;;5097371;28;20039;-54
2023/06/25 05:52:37;;;;;;;7.60;4.05;;;20.20;99.90;;;;;;5097555;28;20085;-54
2023/06/25 05:55:03;;;;;;;7.03;4.20;;;20.40;99.90;;;;;;5097556;28;20028;-54
2023/06/25 05:57:28;;;;;;;6.70;4.28;;;20.60;99.90;;;;;;5097454;28;20393;-53
2023/06/25 05:59:54;;;;;;;7.60;4.00;;;20.80;99.90;;;;;;5097626;28;20032;-54
2023/06/25 06:02:19;;;;;;;7.38;4.53;;;20.90;99.90;;;;;;5097272;28;20478;-51
2023/06/25 06:04:45;;;;;;;9.55;6.15;;;21.00;99.90;;;;;;5097205;28;20115;-54
2023/06/25 06:07:11;;;;;;;7.03;4.43;;;21.10;99.90;;;;;;5097303;28;20059;-54
2023/06/25 06:09:36;;;;;;;11.05;7.22;;;21.30;99.90;;;;;;5097225;28;20036;-54
2023/06/25 06:12:02;;;;;;;7.47;4.95;;;21.40;99.90;;;;;;5097086;28;20042;-53
2023/06/25 06:14:28;;;;;;;7.82;4.90;;;21.50;99.90;;;;;;5079204;28;20028;-54
2023/06/25 06:16:53;;;;;;;5.47;3.80;;;21.70;99.90;;;;;;5097548;28;20372;-53
2023/06/25 06:19:19;;;;;;;8.32;5.78;;;21.80;99.90;;;;;;5078835;28;20080;-52
2023/06/25 06:21:45;;;;;;;10.82;5.35;;;21.90;99.90;;;;;;5096871;28;20032;-54
2023/06/25 06:24:10;;;;;;;5.90;4.05;;;22.00;99.90;;;;;;5097555;28;20139;-52
2023/06/25 06:26:36;;;;;;;6.78;4.20;;;22.20;99.90;;;;;;5097023;28;20497;-54
2023/06/25 06:29:03;;;;;;;10.23;5.32;;;22.30;99.90;;;;;;5096938;28;20084;-55
2023/06/25 06:31:31;;;;;;;8.23;4.40;;;22.30;99.90;;;;;;5096811;28;20035;-52
2023/06/25 06:33:57;;;;;;;8.50;4.47;;;22.40;99.90;;;;;;5096961;28;20023;-54
2023/06/25 06:36:23;;;;;;;7.25;3.92;;;22.50;99.90;;;;;;5096787;28;20491;-54
2023/06/25 06:38:49;;;;;;;5.80;4.05;;;22.70;99.90;;;;;;5096801;28;20039;-54
2023/06/25 06:41:14;;;;;;;6.63;3.92;;;22.70;99.90;;;;;;5094290;28;20024;-54
2023/06/25 06:43:40;;;;;;;9.77;4.93;;;22.80;99.90;;;;;;5093843;28;20042;-54
2023/06/25 06:46:05;;;;;;;5.75;3.83;;;23.00;99.90;;;;;;5075563;28;20063;-53
2023/06/25 06:48:31;;;;;;;10.85;7.40;;;23.20;99.90;;;;;;5093369;28;20038;-53
2023/06/25 06:50:57;;;;;;;6.80;3.95;;;23.20;99.90;;;;;;5093432;28;20031;-51
2023/06/25 06:53:22;;;;;;;9.02;5.68;;;23.40;99.90;;;;;;5093728;28;20020;-53
2023/06/25 06:55:48;;;;;;;8.55;5.13;;;23.50;99.90;;;;;;5093502;28;20043;-53
2023/06/25 06:58:13;;;;;;;7.63;3.95;;;23.70;99.90;;;;;;5093373;28;20102;-54
2023/06/25 07:00:39;;;;;;;10.40;6.45;;;23.80;99.90;;;;;;5074956;28;20539;-52
2023/06/25 07:03:05;;;;;;;7.40;4.50;;;23.90;99.90;;;;;;5093298;28;20051;-55
2023/06/25 07:05:30;;;;;;;6.50;4.20;;;23.90;99.90;;;;;;5093099;28;20481;-53
2023/06/25 07:07:56;;;;;;;6.00;3.63;;;24.00;99.90;;;;;;5093171;28;20059;-54
2023/06/25 07:10:22;;;;;;;4.97;3.50;;;24.00;99.90;;;;;;5093027;28;20032;-49
2023/06/25 07:12:47;;;;;;;7.18;4.10;;;24.10;99.90;;;;;;5093500;28;20070;-52
2023/06/25 07:15:13;;;;;;;4.78;3.35;;;24.30;99.90;;;;;;5074987;28;20485;-52
2023/06/25 07:17:39;;;;;;;6.18;3.47;;;24.30;99.90;;;;;;5092923;28;20504;-53
2023/06/25 07:20:06;;;;;;;5.55;3.53;;;24.40;99.90;;;;;;5074500;28;20035;-53
2023/06/25 07:22:33;;;;;;;9.85;6.10;;;24.50;99.90;;;;;;5092989;28;20385;-53
2023/06/25 07:24:59;;;;;;;12.43;7.20;;;24.60;99.90;;;;;;5092913;28;20035;-51
2023/06/25 07:27:25;;;;;;;5.85;3.92;;;24.60;99.90;;;;;;5092789;28;20028;-54
2023/06/25 07:29:51;;;;;;;5.72;3.72;;;24.80;99.50;;;;;;5092769;28;20538;-53
2023/06/25 07:32:16;;;;;;;8.77;4.88;;;25.00;99.70;;;;;;5092545;28;20137;-54
2023/06/25 07:34:42;;;;;;;5.13;3.47;;;25.20;99.30;;;;;;5092564;28;20077;-53
2023/06/25 07:37:07;;;;;;;7.03;3.80;;;25.20;99.30;;;;;;5074555;28;20329;-53
2023/06/25 07:39:33;;;;;;;6.75;3.67;;;25.30;99.10;;;;;;5092607;28;20035;-54
2023/06/25 07:41:59;;;;;;;5.03;3.78;;;25.30;99.10;;;;;;5092556;28;20443;-52
2023/06/25 07:44:25;;;;;;;6.25;3.90;;;25.30;98.50;;;;;;5092871;28;20070;-52
2023/06/25 07:46:51;;;;;;;5.50;3.78;;;25.50;98.30;;;;;;5092450;28;20028;-53
2023/06/25 07:49:17;;;;;;;5.65;3.67;;;25.50;97.70;;;;;;5092328;28;20040;-55
2023/06/25 07:51:47;;;;;;;5.32;3.92;;;25.60;98.40;;;;;;5073965;28;20024;-53
2023/06/25 07:54:13;;;;;;;5.80;4.00;;;25.60;97.30;;;;;;5092529;28;20061;-53
2023/06/25 07:56:41;;;;;;;4.85;3.58;;;25.70;97.60;;;;;;5092145;28;20027;-51
2023/06/25 07:59:07;;;;;;;7.88;4.00;;;25.70;98.00;;;;;;5092145;28;20092;-55
2023/06/25 08:01:32;;;;;;;5.95;3.78;;;25.70;97.70;;;;;;5091771;28;20540;-54
2023/06/25 08:03:58;;;;;;;6.10;3.65;;;25.80;97.10;;;;;;5091933;28;20039;-49
2023/06/25 08:06:24;;;;;;;5.47;3.65;;;25.90;96.50;;;;;;5091956;28;20376;-50
2023/06/25 08:08:49;;;;;;;5.78;3.63;;;25.80;96.50;;;;;;5091954;28;20260;-49
2023/06/25 08:11:15;;;;;;;5.25;3.38;;;25.90;96.80;;;;;;5091861;28;20031;-52
2023/06/25 08:13:41;;;;;;;6.13;3.65;;;26.00;95.90;;;;;;5091990;28;20051;-54
2023/06/25 08:16:06;;;;;;;4.90;3.65;;;26.10;95.90;;;;;;5091824;28;20057;-49
2023/06/25 08:18:32;;;;;;;5.75;3.67;;;26.20;96.00;;;;;;5091506;28;20115;-49
2023/06/25 08:20:58;;;;;;;5.22;3.50;;;26.30;96.60;;;;;;5091634;28;20032;-51
2023/06/25 08:23:23;;;;;;;6.30;3.70;;;26.40;95.60;;;;;;5091808;28;20063;-53
2023/06/25 08:25:49;;;;;;;8.57;5.43;;;26.50;95.30;;;;;;5091569;28;20035;-49
2023/06/25 08:28:15;;;;;;;6.80;4.40;;;26.60;94.30;;;;;;5091880;28;20097;-51
2023/06/25 08:30:40;;;;;;;7.35;3.75;;;26.70;93.60;;;;;;5091464;28;20044;-51
2023/06/25 08:33:06;;;;;;;5.95;3.83;;;26.80;93.70;;;;;;5091586;28;20031;-49
2023/06/25 08:35:32;;;;;;;6.95;3.92;;;26.70;94.10;;;;;;5091583;28;20477;-52
2023/06/25 08:37:57;;;;;;;4.65;3.10;;;26.80;93.80;;;;;;5091531;28;20062;-49
2023/06/25 08:40:26;;;;;;;6.40;3.70;;;26.90;93.70;;;;;;5091419;28;20046;-49
2023/06/25 08:42:51;;;;;;;;;;;27.00;93.40;;;;;;5091946;28;20035;-49
2023/06/25 08:45:17;;;;;;;4.65;3.25;;;27.00;93.60;;;;;;5091438;28;20287;-51
2023/06/25 08:47:45;;;;;;;5.43;3.58;;;27.00;93.80;;;;;;5091385;28;20028;-52
2023/06/25 08:50:11;;;;;;;5.70;3.13;;;27.10;93.40;;;;;;5091394;28;20075;-51
2023/06/25 08:52:38;;;;;;;6.15;4.22;;;27.20;92.80;;;;;;5073642;28;20060;-50
2023/06/25 08:55:08;;;;;;;6.38;4.05;;;27.20;91.60;;;;;;5091721;28;20032;-53
2023/06/25 08:57:34;;;;;;;5.35;3.50;;;27.30;91.60;;;;;;5091704;28;20066;-55
2023/06/25 09:00:00;;;;;;;9.05;4.22;;;27.40;91.80;;;;;;5091486;28;20039;-50
2023/06/25 09:02:27;;;;;;;5.22;3.10;;;27.60;90.50;;;;;;5092784;28;20036;-52
2023/06/25 09:05:01;;;;;;;5.60;3.28;;;27.70;91.10;;;;;;5092091;28;20036;-53
2023/06/25 09:07:26;;;;;;;5.90;3.50;;;27.80;88.10;;;;;;5093034;28;20212;-54
2023/06/25 09:09:55;;;;;;;5.30;3.20;;;27.80;89.10;;;;;;5093011;28;20063;-52
2023/06/25 09:12:25;;;;;;;6.40;3.20;;;27.80;88.90;;;;;;5073791;28;20031;-55
2023/06/25 09:14:50;;;;;;;5.57;3.40;;;28.00;87.40;;;;;;5090731;28;20028;-53
2023/06/25 09:17:23;;;;;;;6.88;3.83;;;28.10;88.60;;;;;;5090938;28;20039;-50
2023/06/25 09:19:49;;;;;;;5.55;3.53;;;28.20;86.10;;;;;;5090747;28;20252;-50
2023/06/25 09:22:14;;;;;;;6.00;3.28;;;28.20;85.00;;;;;;5090678;28;20115;-49
2023/06/25 09:24:46;;;;;;;5.85;3.13;;;28.30;82.40;;;;;;5090689;28;20024;-50
2023/06/25 09:27:12;;;;;;;4.65;2.97;;;28.30;83.10;;;;;;5090575;28;20057;-52
2023/06/25 09:29:39;;;;;;;5.45;3.60;;;28.40;83.10;;;;;;5090564;28;20490;-52
2023/06/25 09:32:09;;;;;;;5.43;3.25;;;28.40;83.60;;;;;;5090741;28;20111;-52
2023/06/25 09:34:34;;;;;;;4.80;3.17;;;28.50;82.90;;;;;;5090670;28;20024;-54
2023/06/25 09:37:03;;;;;;;5.72;3.40;;;28.60;84.20;;;;;;5090758;28;20526;-53
2023/06/25 09:39:30;;;;;;;5.82;3.10;;;28.80;82.40;;;;;;5072450;28;20043;-52
2023/06/25 09:41:57;;;;;;;5.43;3.40;;;28.80;81.80;;;;;;5090354;28;20032;-54
2023/06/25 09:44:22;;;;;;;6.30;4.20;;;28.90;81.30;;;;;;5090814;28;20036;-51
2023/06/25 09:46:52;;;;;;;5.47;3.60;;;29.00;80.00;;;;;;5090537;28;20062;-50
2023/06/25 09:49:19;;;;;;;4.63;3.35;;;29.00;78.40;;;;;;5090370;28;20082;-52
2023/06/25 09:52:14;;;;;;;4.53;3.35;;;29.00;78.20;;;;;;5090415;28;20031;-54
2023/06/25 09:54:46;;;;;;;5.63;3.25;;;28.90;80.20;;;;;;5088362;28;20694;-51
2023/06/25 09:57:16;;;;;;;6.88;3.78;;;29.00;79.30;;;;;;5090483;28;20587;-53
2023/06/25 09:59:42;;;;;;;4.82;3.13;;;29.00;77.60;;;;;;5090343;28;20040;-52
2023/06/25 10:02:08;;;;;;;4.90;3.45;;;29.00;77.20;;;;;;5090256;28;20214;-55
2023/06/25 10:04:34;;;;;;;4.93;3.03;;;29.10;74.30;;;;;;5090347;28;20031;-53
2023/06/25 10:07:04;;;;;;;4.80;3.33;;;29.10;72.40;;;;;;5090421;28;20028;-51
2023/06/25 10:09:30;;;;;;;4.95;3.53;;;29.20;73.70;;;;;;5090347;28;20035;-54
2023/06/25 10:11:57;;;;;;;4.72;2.80;;;29.10;75.40;;;;;;5090349;28;20291;-55
2023/06/25 10:14:23;;;;;;;4.38;3.10;;;29.20;73.40;;;;;;5072129;28;20031;-54
2023/06/25 10:16:54;;;;;;;5.15;3.20;;;29.20;75.40;;;;;;5092194;28;20119;-54
2023/06/25 10:19:24;;;;;;;5.22;3.28;;;29.30;75.50;;;;;;5093948;28;20039;-55
2023/06/25 10:22:07;;;;;;;5.10;3.25;;;29.40;75.60;;;;;;5093871;28;20032;-53
2023/06/25 10:24:40;;;;;;;4.93;2.90;;;29.40;74.80;;;;;;5094304;28;20040;-55
2023/06/25 10:27:07;;;;;;;5.93;3.30;;;29.50;74.40;;;;;;5093945;28;20035;-52
2023/06/25 10:29:42;;;;;;;4.97;3.20;;;29.40;74.20;;;;;;5093861;28;20435;-55
2023/06/25 10:32:12;;;;;;;5.53;3.63;;;29.50;73.90;;;;;;5093889;28;20126;-51
2023/06/25 10:34:38;;;;;;;7.00;4.30;;;29.50;75.80;;;;;;5093960;28;20113;-54
2023/06/25 10:37:05;;;;;;;4.95;3.58;;;29.50;76.20;;;;;;5093956;28;20403;-54
2023/06/25 10:39:38;;;;;;;7.07;4.20;;;29.70;74.10;;;;;;5093712;28;20040;-53
2023/06/25 10:42:04;;;;;;;6.43;4.28;;;29.70;72.10;;;;;;5093607;28;20040;-54
2023/06/25 10:44:30;;;;;;;7.88;4.68;;;29.70;72.90;;;;;;5093628;28;20032;-53
2023/06/25 10:47:09;;;;;;;4.90;3.55;;;29.70;72.50;;;;;;5093567;28;20032;-52
2023/06/25 10:49:35;;;;;;;4.63;3.40;;;29.80;72.20;;;;;;5093470;28;20028;-52
2023/06/25 10:52:02;;;;;;;5.03;3.70;;;29.90;71.80;;;;;;5093417;28;20028;-53
2023/06/25 10:54:28;;;;;;;7.13;4.45;;;29.90;72.80;;;;;;5075457;28;20106;-53
2023/06/25 10:57:04;;;;;;;5.65;3.70;;;30.00;71.00;;;;;;5093372;28;20461;-54
2023/06/25 10:59:30;;;;;;;4.95;3.13;;;29.90;71.20;;;;;;5093355;28;20472;-54
2023/06/25 11:01:55;;;;;;;6.32;3.50;;;29.90;71.90;;;;;;5075068;28;20043;-54
2023/06/25 11:04:21;;;;;;;5.05;3.40;;;29.90;71.70;;;;;;5093329;28;20110;-55
2023/06/25 11:06:47;;;;;;;9.13;4.72;;;30.00;71.70;;;;;;5093291;28;20032;-53
2023/06/25 11:09:13;;;;;;;8.43;5.47;;;29.90;75.60;;;;;;5093050;28;20108;-51
2023/06/25 11:11:38;;;;;;;5.28;3.50;;;30.00;72.40;;;;;;5093114;28;20324;-54
2023/06/25 11:14:04;;;;;;;7.00;2.97;;;30.00;71.90;;;;;;5093212;28;20099;-52
2023/06/25 11:16:29;;;;;;;5.38;3.60;;;30.00;71.80;;;;;;5093021;28;20031;-53
2023/06/25 11:18:55;;;;;;;5.38;3.53;;;30.00;72.50;;;;;;5092993;28;20024;-52
2023/06/25 11:21:21;;;;;;;6.28;3.55;;;30.10;71.30;;;;;;5092905;28;20027;-52
2023/06/25 11:23:46;;;;;;;6.07;3.90;;;30.00;71.80;;;;;;5093082;28;20541;-53
2023/06/25 11:26:17;;;;;;;4.90;3.13;;;30.00;71.80;;;;;;5092847;28;20028;-53
2023/06/25 11:28:42;;;;;;;4.70;3.60;;;30.10;71.90;;;;;;5092157;28;20066;-55
2023/06/25 11:31:08;;;;;;;5.88;3.72;;;30.10;72.60;;;;;;5092782;28;20146;-53
2023/06/25 11:33:34;;;;;;;5.50;3.35;;;30.20;71.40;;;;;;5092967;28;20116;-54
2023/06/25 11:36:12;;;;;;;4.78;3.25;;;30.20;69.80;;;;;;5074743;28;20024;-49
2023/06/25 11:38:43;;;;;;;6.90;3.55;;;30.10;70.30;;;;;;5092759;28;20043;-53
2023/06/25 11:41:08;;;;;;;5.15;3.83;;;30.10;70.80;;;;;;5092827;28;20040;-53
2023/06/25 11:43:34;;;;;;;6.15;3.70;;;30.10;71.60;;;;;;5092831;28;20035;-53
2023/06/25 11:46:02;;;;;;;6.35;3.30;;;30.20;71.10;;;;;;5092661;28;20177;-54
2023/06/25 11:48:29;;;;;;;4.57;3.25;;;30.20;70.90;;;;;;5092526;28;20055;-53
2023/06/25 11:51:05;;;;;;;5.88;3.60;;;30.40;70.50;;;;;;5092350;28;20032;-53
2023/06/25 11:53:32;;;;;;;4.80;3.35;;;30.40;70.80;;;;;;5092471;28;20103;-54
2023/06/25 11:55:57;;;;;;;5.30;3.53;;;30.60;69.20;;;;;;5092012;28;20063;-51
2023/06/25 11:58:23;;;;;;;5.85;3.63;;;30.70;69.20;;;;;;5073582;28;20063;-53
2023/06/25 12:00:49;;;;;;;4.95;3.38;;;30.60;68.70;;;;;;5092272;28;20032;-52
2023/06/25 12:03:14;;;;;;;5.00;3.55;;;30.50;68.90;;;;;;5092161;28;20031;-49
2023/06/25 12:05:40;;;;;;;4.97;3.40;;;30.70;69.90;;;;;;5092017;28;20038;-52
2023/06/25 12:08:05;;;;;;;6.72;4.35;;;30.70;69.30;;;;;;5091816;28;20028;-54
2023/06/25 12:10:31;;;;;;;6.72;5.07;;;30.80;68.90;;;;;;5091807;28;20102;-51
2023/06/25 12:12:56;;;;;;;6.75;3.90;;;30.90;68.60;;;;;;5091803;28;20032;-52
2023/06/25 12:15:22;;;;;;;4.57;3.42;;;30.90;68.50;;;;;;5091896;28;20024;-53
2023/06/25 12:17:48;;;;;;;5.22;3.55;;;31.00;68.80;;;;;;5091926;28;20039;-53
2023/06/25 12:20:14;;;;;;;5.40;3.50;;;31.00;70.00;;;;;;5091298;28;20081;-54
2023/06/25 12:22:40;;;;;;;6.03;3.58;;;31.00;68.20;;;;;;5091460;28;20024;-53
2023/06/25 12:25:05;;;;;;;4.85;3.42;;;31.00;69.30;;;;;;5091601;28;20379;-53
2023/06/25 12:27:31;;;;;;;5.72;3.67;;;30.90;69.40;;;;;;5091420;28;20028;-54
2023/06/25 12:29:57;;;;;;;5.93;3.70;;;30.90;68.70;;;;;;5091608;28;20034;-54
2023/06/25 12:32:22;;;;;;;4.30;3.08;;;30.80;68.50;;;;;;5091506;28;20027;-53
2023/06/25 12:34:48;;;;;;;7.00;4.18;;;30.80;68.30;;;;;;5073688;28;20066;-51
2023/06/25 12:37:13;;;;;;;4.57;3.47;;;30.90;68.30;;;;;;5091441;28;20074;-54
2023/06/25 12:39:39;;;;;;;5.50;3.83;;;30.90;67.90;;;;;;5072420;28;20029;-55
2023/06/25 12:42:05;;;;;;;6.03;3.17;;;30.80;68.10;;;;;;5091086;28;20053;-53